createdAt,value
2023-04-28T00:01:53.058Z,1.73
2023-04-28T00:04:20.126Z,1.56
2023-04-28T00:06:47.061Z,1.60
2023-04-28T00:09:13.745Z,1.77
2023-04-28T00:11:40.410Z,1.82
2023-04-28T00:14:07.164Z,1.75
2023-04-28T00:16:33.857Z,1.82
2023-04-28T00:19:00.603Z,1.91
2023-04-28T00:21:27.259Z,1.82
2023-04-28T00:23:54.148Z,1.86
2023-04-28T00:26:20.797Z,1.84
2023-04-28T00:28:47.492Z,1.90
2023-04-28T00:31:15.146Z,1.84
2023-04-28T00:33:42.922Z,1.87
2023-04-28T00:36:10.742Z,1.75
2023-04-28T00:38:37.718Z,1.75
2023-04-28T00:41:04.558Z,1.92
2023-04-28T00:43:31.258Z,1.78
2023-04-28T00:45:58.241Z,1.71
2023-04-28T00:48:25.097Z,1.91
2023-04-28T00:50:52.118Z,1.74
2023-04-28T00:53:18.744Z,1.74
2023-04-28T00:55:47.942Z,1.62
2023-04-28T00:58:14.589Z,1.80
2023-04-28T01:00:41.192Z,1.64
2023-04-28T01:03:08.163Z,1.59
2023-04-28T01:05:36.469Z,1.65
2023-04-28T01:08:03.225Z,1.79
2023-04-28T01:10:29.838Z,1.80
2023-04-28T01:12:56.463Z,1.85
2023-04-28T01:15:23.178Z,1.82
2023-04-28T01:17:49.880Z,1.69
2023-04-28T01:20:17.070Z,1.91
2023-04-28T01:22:43.681Z,1.88
2023-04-28T01:25:10.304Z,1.83
2023-04-28T01:27:36.924Z,1.90
2023-04-28T01:30:03.795Z,1.99
2023-04-28T01:32:30.481Z,1.96
2023-04-28T01:34:57.127Z,1.92
2023-04-28T01:37:23.742Z,1.92
2023-04-28T01:39:50.344Z,2.01
2023-04-28T01:42:17.014Z,2.04
2023-04-28T01:44:43.629Z,2.04
2023-04-28T01:47:10.256Z,1.88
2023-04-28T01:49:36.870Z,2.16
2023-04-28T01:52:03.658Z,1.86
2023-04-28T01:54:30.311Z,1.87
2023-04-28T01:56:56.948Z,2.28
2023-04-28T01:59:23.579Z,2.22
2023-04-28T02:01:50.254Z,1.92
2023-04-28T02:04:17.220Z,2.32
2023-04-28T02:06:44.058Z,2.18
2023-04-28T02:09:10.666Z,2.04
2023-04-28T02:11:37.376Z,2.00
2023-04-28T02:14:04.047Z,1.94
2023-04-28T02:16:30.702Z,1.98
2023-04-28T02:18:57.531Z,2.01
2023-04-28T02:21:24.167Z,1.91
2023-04-28T02:23:50.933Z,1.88
2023-04-28T02:26:17.631Z,2.15
2023-04-28T02:28:44.381Z,2.05
2023-04-28T02:31:11.842Z,2.16
2023-04-28T02:33:38.705Z,2.19
2023-04-28T02:36:06.720Z,2.02
2023-04-28T02:38:33.472Z,2.07
2023-04-28T02:41:01.943Z,2.04
2023-04-28T02:43:29.241Z,2.07
2023-04-28T02:45:56.054Z,2.07
2023-04-28T02:48:23.633Z,1.83
2023-04-28T02:50:50.526Z,1.94
2023-04-28T02:53:17.138Z,1.84
2023-04-28T02:55:43.843Z,2.00
2023-04-28T02:58:10.469Z,1.69
2023-04-28T03:00:37.124Z,2.02
2023-04-28T03:03:03.951Z,2.00
2023-04-28T03:05:30.886Z,1.84
2023-04-28T03:07:57.685Z,1.89
2023-04-28T03:10:24.280Z,1.83
2023-04-28T03:12:50.929Z,1.88
2023-04-28T03:15:17.628Z,1.92
2023-04-28T03:17:44.525Z,1.67
2023-04-28T03:20:11.982Z,1.99
2023-04-28T03:22:38.885Z,2.08
2023-04-28T03:25:05.763Z,1.97
2023-04-28T03:27:32.361Z,2.07
2023-04-28T03:29:58.985Z,2.00
2023-04-28T03:32:25.680Z,2.17
2023-04-28T03:34:52.309Z,1.99
2023-04-28T03:37:18.926Z,2.09
2023-04-28T03:39:45.592Z,2.17
2023-04-28T03:42:12.282Z,2.17
2023-04-28T03:44:38.892Z,2.10
2023-04-28T03:47:05.509Z,1.98
2023-04-28T03:49:32.135Z,2.11
2023-04-28T03:51:58.839Z,2.07
2023-04-28T03:54:25.476Z,2.25
2023-04-28T03:56:52.176Z,2.05
2023-04-28T03:59:18.820Z,2.11
2023-04-28T04:01:45.458Z,2.10
2023-04-28T04:04:12.299Z,2.25
2023-04-28T04:06:39.044Z,2.06
2023-04-28T04:09:05.851Z,2.27
2023-04-28T04:11:32.553Z,2.16
2023-04-28T04:13:59.156Z,2.15
2023-04-28T04:16:26.293Z,2.09
2023-04-28T04:18:52.973Z,2.27
2023-04-28T04:21:19.574Z,2.14
2023-04-28T04:23:46.239Z,2.03
2023-04-28T04:26:13.248Z,2.22
2023-04-28T04:28:39.995Z,2.07
2023-04-28T04:31:06.733Z,2.05
2023-04-28T04:33:33.380Z,2.05
2023-04-28T04:36:00.041Z,2.15
2023-04-28T04:38:26.748Z,2.09
2023-04-28T04:40:53.344Z,2.17
2023-04-28T04:43:20.009Z,2.00
2023-04-28T04:45:46.671Z,2.09
2023-04-28T04:48:13.572Z,2.09
2023-04-28T04:50:41.203Z,2.11
2023-04-28T04:53:10.605Z,2.04
2023-04-28T04:55:42.457Z,2.13
2023-04-28T04:58:09.087Z,2.21
2023-04-28T05:00:35.701Z,2.11
2023-04-28T05:03:02.518Z,2.11
2023-04-28T05:05:29.505Z,2.22
2023-04-28T05:07:56.281Z,1.81
2023-04-28T05:10:22.880Z,1.78
2023-04-28T05:12:49.483Z,1.86
2023-04-28T05:15:16.122Z,1.93
2023-04-28T05:17:42.778Z,2.11
2023-04-28T05:20:10.549Z,1.95
2023-04-28T05:22:38.949Z,1.89
2023-04-28T05:25:06.108Z,2.37
2023-04-28T05:27:32.809Z,2.00
2023-04-28T05:29:59.399Z,2.33
2023-04-28T05:32:25.992Z,2.12
2023-04-28T05:34:52.614Z,2.21
2023-04-28T05:37:19.254Z,2.27
2023-04-28T05:39:45.844Z,1.94
2023-04-28T05:42:12.554Z,2.11
2023-04-28T05:44:40.199Z,1.77
2023-04-28T05:47:08.451Z,1.79
2023-04-28T05:49:35.177Z,2.09
2023-04-28T05:52:02.450Z,2.08
2023-04-28T05:54:29.186Z,1.95
2023-04-28T05:56:57.181Z,2.06
2023-04-28T05:59:23.867Z,1.85
2023-04-28T06:01:50.514Z,1.86
2023-04-28T06:04:17.672Z,1.79
2023-04-28T06:06:45.574Z,1.69
2023-04-28T06:09:12.255Z,1.62
2023-04-28T06:11:38.937Z,1.62
2023-04-28T06:14:05.620Z,1.77
2023-04-28T06:16:32.649Z,1.74
2023-04-28T06:18:59.454Z,1.66
2023-04-28T06:21:26.167Z,1.71
2023-04-28T06:23:52.805Z,1.63
2023-04-28T06:26:20.089Z,1.85
2023-04-28T06:28:46.857Z,1.82
2023-04-28T06:31:13.570Z,1.88
2023-04-28T06:33:40.349Z,1.84
2023-04-28T06:36:07.788Z,1.64
2023-04-28T06:38:34.556Z,1.78
2023-04-28T06:41:01.439Z,1.81
2023-04-28T06:43:28.068Z,1.78
2023-04-28T06:45:54.731Z,1.88
2023-04-28T06:48:21.387Z,1.95
2023-04-28T06:50:48.254Z,2.05
2023-04-28T06:53:14.947Z,2.18
2023-04-28T06:55:41.660Z,2.14
2023-04-28T06:58:08.712Z,2.11
2023-04-28T07:00:35.585Z,2.04
2023-04-28T07:03:02.466Z,1.88
2023-04-28T07:05:29.367Z,1.92
2023-04-28T07:07:56.071Z,2.10
2023-04-28T07:10:22.767Z,2.14
2023-04-28T07:12:51.200Z,2.20
2023-04-28T07:15:18.045Z,2.26
2023-04-28T07:17:44.672Z,2.16
2023-04-28T07:20:11.720Z,2.29
2023-04-28T07:22:38.359Z,2.28
2023-04-28T07:25:05.271Z,2.22
2023-04-28T07:27:32.051Z,2.25
2023-04-28T07:29:58.712Z,2.35
2023-04-28T07:32:25.393Z,2.35
2023-04-28T07:34:52.085Z,2.46
2023-04-28T07:37:19.129Z,2.56
2023-04-28T07:39:45.806Z,2.10
2023-04-28T07:42:12.474Z,2.20
2023-04-28T07:44:39.173Z,2.36
2023-04-28T07:47:08.752Z,2.47
2023-04-28T07:49:35.397Z,2.48
2023-04-28T07:52:02.042Z,2.34
2023-04-28T07:54:28.697Z,2.35
2023-04-28T07:56:56.988Z,2.26
2023-04-28T07:59:23.787Z,2.14
2023-04-28T08:01:52.259Z,2.92
2023-04-28T08:04:19.233Z,2.29
2023-04-28T08:06:46.117Z,2.33
2023-04-28T08:09:12.772Z,2.16
2023-04-28T08:11:39.367Z,1.98
2023-04-28T08:14:05.989Z,1.90
2023-04-28T08:16:32.623Z,2.11
2023-04-28T08:18:59.336Z,2.06
2023-04-28T08:21:26.118Z,2.13
2023-04-28T08:23:52.822Z,2.30
2023-04-28T08:26:19.514Z,2.30
2023-04-28T08:28:46.112Z,2.24
2023-04-28T08:31:12.772Z,2.43
2023-04-28T08:33:39.624Z,2.50
2023-04-28T08:36:06.629Z,2.32
2023-04-28T08:38:33.308Z,2.27
2023-04-28T08:41:00.437Z,2.35
2023-04-28T08:43:27.146Z,2.34
2023-04-28T08:45:53.929Z,2.34
2023-04-28T08:48:22.592Z,2.17
2023-04-28T08:50:51.553Z,2.30
2023-04-28T08:53:26.216Z,2.19
2023-04-28T08:55:56.518Z,2.31
2023-04-28T08:58:27.381Z,2.41
2023-04-28T09:00:54.297Z,2.10
2023-04-28T09:03:21.164Z,2.24
2023-04-28T09:05:48.582Z,2.24
2023-04-28T09:08:16.040Z,2.11
2023-04-28T09:10:42.981Z,1.93
2023-04-28T09:13:09.617Z,2.34
2023-04-28T09:15:39.733Z,2.36
2023-04-28T09:18:08.157Z,2.12
2023-04-28T09:20:36.230Z,2.15
2023-04-28T09:23:20.556Z,2.22
2023-04-28T09:26:03.225Z,1.94
2023-04-28T09:28:30.919Z,2.11
2023-04-28T09:30:57.735Z,1.99
2023-04-28T09:33:25.562Z,2.08
2023-04-28T09:35:53.135Z,1.96
2023-04-28T09:38:21.453Z,2.02
2023-04-28T09:40:50.908Z,1.80
2023-04-28T09:43:43.704Z,2.05
2023-04-28T09:46:10.375Z,1.80
2023-04-28T09:48:38.275Z,1.86
2023-04-28T09:51:06.985Z,2.00
2023-04-28T09:53:34.871Z,1.96
2023-04-28T09:56:03.830Z,2.12
2023-04-28T09:58:31.559Z,1.97
2023-04-28T10:01:00.323Z,1.96
2023-04-28T10:03:30.002Z,2.15
2023-04-28T10:05:58.891Z,1.98
2023-04-28T10:08:29.313Z,2.00
2023-04-28T10:10:59.678Z,1.93
2023-04-28T10:13:26.318Z,1.96
2023-04-28T10:15:53.233Z,2.02
2023-04-28T10:18:24.548Z,2.01
2023-04-28T10:21:00.145Z,2.03
2023-04-28T10:23:29.754Z,1.92
2023-04-28T10:25:58.185Z,1.69
2023-04-28T10:28:26.527Z,1.86
2023-04-28T10:31:13.969Z,1.69
2023-04-28T10:33:42.201Z,1.90
2023-04-28T10:36:09.898Z,1.66
2023-04-28T10:39:08.853Z,1.79
2023-04-28T10:41:35.642Z,1.94
2023-04-28T10:44:28.072Z,1.91
2023-04-28T10:47:01.720Z,1.72
2023-04-28T10:49:56.463Z,1.84
2023-04-28T10:52:38.289Z,1.73
2023-04-28T10:55:34.127Z,1.64
2023-04-28T10:58:16.238Z,1.85
2023-04-28T11:00:50.676Z,1.88
2023-04-28T11:03:48.474Z,1.83
2023-04-28T11:06:32.900Z,1.66
2023-04-28T11:09:23.489Z,1.82
2023-04-28T11:12:06.151Z,1.95
2023-04-28T11:14:35.370Z,2.02
2023-04-28T11:17:07.504Z,1.79
2023-04-28T11:19:34.301Z,1.86
2023-04-28T11:22:03.321Z,1.77
2023-04-28T11:24:32.226Z,1.82
2023-04-28T11:27:00.066Z,1.92
2023-04-28T11:29:35.003Z,1.81
2023-04-28T11:32:06.121Z,1.71
2023-04-28T11:34:34.259Z,1.91
2023-04-28T11:37:01.303Z,1.71
2023-04-28T11:39:31.286Z,1.65
2023-04-28T11:41:59.495Z,1.64
2023-04-28T11:44:29.292Z,1.81
2023-04-28T11:46:58.532Z,1.72
2023-04-28T11:49:27.027Z,1.68
2023-04-28T11:51:53.805Z,1.55
2023-04-28T11:54:28.896Z,1.90
2023-04-28T11:56:58.207Z,1.77
2023-04-28T11:59:27.615Z,1.58
2023-04-28T12:01:59.849Z,1.63
2023-04-28T12:04:44.870Z,1.58
2023-04-28T12:07:14.399Z,1.63
2023-04-28T12:09:42.664Z,1.67
2023-04-28T12:12:17.193Z,1.77
2023-04-28T12:15:13.299Z,1.89
2023-04-28T12:17:43.346Z,1.84
2023-04-28T12:20:12.481Z,1.61
2023-04-28T12:22:49.332Z,1.67
2023-04-28T12:25:18.222Z,1.83
2023-04-28T12:28:04.687Z,1.88
2023-04-28T12:30:36.461Z,1.67
2023-04-28T12:33:03.139Z,1.73
2023-04-28T12:35:30.208Z,1.74
2023-04-28T12:37:57.947Z,1.64
2023-04-28T12:40:24.871Z,1.77
2023-04-28T12:42:51.776Z,1.76
2023-04-28T12:45:18.456Z,1.80
2023-04-28T12:47:45.199Z,1.54
2023-04-28T12:50:11.906Z,1.71
2023-04-28T12:52:38.614Z,1.85
2023-04-28T12:55:05.922Z,1.64
2023-04-28T12:57:32.578Z,1.65
2023-04-28T12:59:59.317Z,1.66
2023-04-28T13:02:26.184Z,1.82
2023-04-28T13:04:53.132Z,1.58
2023-04-28T13:07:20.210Z,1.52
2023-04-28T13:09:47.235Z,1.46
2023-04-28T13:12:14.523Z,1.68
2023-04-28T13:14:41.314Z,1.35
2023-04-28T13:17:08.149Z,1.49
2023-04-28T13:19:34.891Z,1.52
2023-04-28T13:22:01.554Z,1.64
2023-04-28T13:24:28.238Z,1.49
2023-04-28T13:26:54.877Z,1.64
2023-04-28T13:29:21.564Z,1.69
2023-04-28T13:31:48.303Z,1.43
2023-04-28T13:34:14.914Z,1.34
2023-04-28T13:36:42.224Z,1.46
2023-04-28T13:39:08.878Z,1.62
2023-04-28T13:41:35.509Z,1.52
2023-04-28T13:44:02.114Z,1.63
2023-04-28T13:46:28.868Z,1.37
2023-04-28T13:48:55.481Z,1.42
2023-04-28T13:51:22.098Z,1.50
2023-04-28T13:53:48.710Z,1.33
2023-04-28T13:56:15.323Z,1.36
2023-04-28T13:58:42.024Z,1.48
2023-04-28T14:01:08.652Z,1.33
2023-04-28T14:03:35.353Z,1.34
2023-04-28T14:06:02.145Z,1.35
2023-04-28T14:08:28.737Z,1.41
2023-04-28T14:10:55.330Z,1.54
2023-04-28T14:13:22.075Z,1.62
2023-04-28T14:15:58.548Z,1.45
2023-04-28T14:18:26.258Z,1.58
2023-04-28T14:20:52.866Z,1.99
2023-04-28T14:23:19.459Z,3.20
2023-04-28T14:25:46.137Z,3.08
2023-04-28T14:28:12.764Z,3.07
2023-04-28T14:30:39.411Z,2.94
2023-04-28T14:33:06.037Z,2.49
2023-04-28T14:35:34.229Z,2.03
2023-04-28T14:38:00.971Z,1.88
2023-04-28T14:40:27.675Z,1.94
2023-04-28T14:42:55.098Z,1.74
2023-04-28T14:45:22.871Z,1.61
2023-04-28T14:47:49.594Z,1.54
2023-04-28T14:50:16.259Z,1.60
2023-04-28T14:52:44.219Z,1.50
2023-04-28T14:55:10.829Z,1.49
2023-04-28T14:57:37.441Z,1.53
2023-04-28T15:00:05.194Z,1.52
2023-04-28T15:02:32.101Z,1.66
2023-04-28T15:04:59.033Z,1.64
2023-04-28T15:07:25.751Z,1.73
2023-04-28T15:09:52.418Z,1.76
2023-04-28T15:12:19.077Z,1.61
2023-04-28T15:14:45.827Z,1.91
2023-04-28T15:17:12.568Z,1.74
2023-04-28T15:19:39.337Z,1.85
2023-04-28T15:22:06.058Z,1.67
2023-04-28T15:24:32.707Z,1.77
2023-04-28T15:26:59.658Z,1.85
2023-04-28T15:29:26.261Z,1.99
2023-04-28T15:31:53.082Z,2.05
2023-04-28T15:34:20.419Z,1.88
2023-04-28T15:36:48.306Z,1.94
2023-04-28T15:39:15.013Z,1.94
2023-04-28T15:41:41.919Z,1.87
2023-04-28T15:44:08.513Z,1.92
2023-04-28T15:46:36.341Z,1.97
2023-04-28T15:49:03.179Z,2.20
2023-04-28T15:51:29.788Z,2.07
2023-04-28T15:53:56.432Z,1.96
2023-04-28T15:56:23.309Z,2.14
2023-04-28T15:58:50.250Z,2.14
2023-04-28T16:01:17.494Z,2.11
2023-04-28T16:03:45.881Z,2.10
2023-04-28T16:06:14.035Z,1.96
2023-04-28T16:08:40.755Z,2.10
2023-04-28T16:11:08.058Z,2.24
2023-04-28T16:13:34.681Z,2.13
2023-04-28T16:16:01.311Z,2.27
2023-04-28T16:18:27.922Z,1.97
2023-04-28T16:20:54.572Z,2.28
2023-04-28T16:23:21.322Z,2.24
2023-04-28T16:25:47.995Z,2.24
2023-04-28T16:28:14.629Z,2.16
2023-04-28T16:31:06.370Z,2.31
2023-04-28T16:33:33.071Z,2.20
2023-04-28T16:35:59.789Z,2.04
2023-04-28T16:38:26.485Z,2.19
2023-04-28T16:40:53.183Z,2.17
2023-04-28T16:43:20.436Z,2.17
2023-04-28T16:45:47.215Z,2.33
2023-04-28T16:48:18.518Z,2.30
2023-04-28T16:50:45.137Z,2.31
2023-04-28T16:53:11.807Z,2.36
2023-04-28T16:55:38.446Z,2.33
2023-04-28T16:58:07.417Z,2.13
2023-04-28T17:00:34.092Z,2.37
2023-04-28T17:03:00.790Z,2.25
2023-04-28T17:05:28.804Z,2.38
2023-04-28T17:07:55.443Z,2.28
2023-04-28T17:10:22.239Z,2.17
2023-04-28T17:12:48.970Z,2.44
2023-04-28T17:15:15.855Z,2.41
2023-04-28T17:17:43.017Z,2.49
2023-04-28T17:20:10.475Z,2.05
2023-04-28T17:22:37.139Z,2.34
2023-04-28T17:25:04.282Z,2.27
2023-04-28T17:27:30.896Z,2.34
2023-04-28T17:29:57.542Z,2.20
2023-04-28T17:32:24.238Z,2.34
2023-04-28T17:34:50.898Z,2.32
2023-04-28T17:37:17.605Z,2.22
2023-04-28T17:39:44.212Z,2.23
2023-04-28T17:42:10.845Z,2.33
2023-04-28T17:44:37.494Z,2.35
2023-04-28T17:47:04.293Z,2.52
2023-04-28T17:49:30.976Z,2.58
2023-04-28T17:51:57.684Z,2.59
2023-04-28T17:54:24.396Z,2.44
2023-04-28T17:56:51.072Z,2.59
2023-04-28T17:59:17.933Z,2.32
2023-04-28T18:01:44.551Z,2.31
2023-04-28T18:04:12.432Z,2.50
2023-04-28T18:06:39.104Z,2.50
2023-04-28T18:09:08.269Z,2.53
2023-04-28T18:11:34.949Z,2.56
2023-04-28T18:14:01.638Z,2.72
2023-04-28T18:16:28.310Z,2.90
2023-04-28T18:18:54.942Z,2.96
2023-04-28T18:21:21.595Z,2.91
2023-04-28T18:23:48.209Z,2.85
2023-04-28T18:26:15.932Z,2.67
2023-04-28T18:28:46.574Z,2.74
2023-04-28T18:31:13.262Z,2.72
2023-04-28T18:33:39.915Z,2.86
2023-04-28T18:36:06.550Z,2.73
2023-04-28T18:38:34.144Z,2.88
2023-04-28T18:41:01.720Z,2.80
2023-04-28T18:43:30.810Z,2.87
2023-04-28T18:45:57.588Z,2.79
2023-04-28T18:48:24.232Z,2.88
2023-04-28T18:50:50.955Z,2.78
2023-04-28T18:53:17.665Z,2.73
2023-04-28T18:55:44.591Z,2.77
2023-04-28T18:58:11.211Z,2.60
2023-04-28T19:00:38.047Z,2.65
2023-04-28T19:03:05.020Z,2.47
2023-04-28T19:05:32.053Z,2.59
2023-04-28T19:07:58.642Z,2.71
2023-04-28T19:10:25.279Z,2.48
2023-04-28T19:12:52.013Z,2.48
2023-04-28T19:15:18.797Z,2.59
2023-04-28T19:17:45.424Z,2.53
2023-04-28T19:20:12.402Z,2.54
2023-04-28T19:22:40.273Z,2.64
2023-04-28T19:25:07.215Z,2.53
2023-04-28T19:27:37.303Z,2.33
2023-04-28T19:30:05.785Z,2.75
2023-04-28T19:32:32.594Z,2.65
2023-04-28T19:34:59.307Z,2.54
2023-04-28T19:37:26.228Z,2.71
2023-04-28T19:39:53.018Z,2.71
2023-04-28T19:42:20.140Z,2.87
2023-04-28T19:44:47.595Z,2.96
2023-04-28T19:47:29.468Z,2.84
2023-04-28T19:49:59.282Z,2.76
2023-04-28T19:52:25.971Z,2.93
2023-04-28T19:54:52.603Z,3.02
2023-04-28T19:57:19.784Z,2.98
2023-04-28T19:59:47.269Z,3.30
2023-04-28T20:02:14.808Z,3.24
2023-04-28T20:04:41.690Z,2.89
2023-04-28T20:07:08.943Z,3.28
2023-04-28T20:09:36.941Z,3.14
2023-04-28T20:12:06.551Z,2.88
2023-04-28T20:14:33.518Z,2.74
2023-04-28T20:17:04.050Z,2.70
2023-04-28T20:19:30.995Z,2.82
2023-04-28T20:21:57.900Z,2.71
2023-04-28T20:24:24.618Z,2.12
2023-04-28T20:26:52.018Z,2.12
2023-04-28T20:29:18.682Z,2.26
2023-04-28T20:31:45.546Z,2.35
2023-04-28T20:34:12.197Z,2.22
2023-04-28T20:36:41.130Z,2.24
2023-04-28T20:39:11.566Z,2.22
2023-04-28T20:41:38.583Z,2.08
2023-04-28T20:44:05.260Z,1.73
2023-04-28T20:46:32.061Z,1.67
2023-04-28T20:48:58.716Z,1.95
2023-04-28T20:51:25.381Z,1.94
2023-04-28T20:53:52.025Z,2.10
2023-04-28T20:56:18.669Z,2.19
2023-04-28T20:58:45.310Z,1.99
2023-04-28T21:01:15.130Z,1.84
2023-04-28T21:03:41.897Z,1.86
2023-04-28T21:06:08.656Z,1.88
2023-04-28T21:08:35.448Z,2.06
2023-04-28T21:11:02.094Z,1.76
2023-04-28T21:13:28.707Z,2.06
2023-04-28T21:15:55.333Z,2.30
2023-04-28T21:18:21.982Z,2.41
2023-04-28T21:20:48.703Z,2.46
2023-04-28T21:23:15.344Z,2.65
2023-04-28T21:25:41.962Z,2.53
2023-04-28T21:28:08.615Z,2.63
2023-04-28T21:30:35.341Z,2.53
2023-04-28T21:33:02.063Z,2.63
2023-04-28T21:35:28.825Z,2.69
2023-04-28T21:37:55.538Z,3.13
2023-04-28T21:40:22.352Z,3.83
2023-04-28T21:42:48.950Z,3.93
2023-04-28T21:45:15.575Z,3.90
2023-04-28T21:47:43.572Z,3.40
2023-04-28T21:50:10.567Z,3.41
2023-04-28T21:52:37.260Z,3.37
2023-04-28T21:55:04.169Z,3.16
2023-04-28T21:57:31.096Z,3.15
2023-04-28T21:59:57.800Z,3.53
2023-04-28T22:02:24.521Z,4.70
2023-04-28T22:04:51.549Z,4.05
2023-04-28T22:07:18.455Z,3.28
2023-04-28T22:09:45.462Z,2.28
2023-04-28T22:12:12.135Z,2.22
2023-04-28T22:14:41.283Z,2.35
2023-04-28T22:17:08.676Z,2.23
2023-04-28T22:19:35.529Z,2.10
2023-04-28T22:22:02.205Z,1.79
2023-04-28T22:24:29.096Z,1.88
2023-04-28T22:26:55.693Z,1.65
2023-04-28T22:29:22.341Z,1.75
2023-04-28T22:31:49.020Z,1.60
2023-04-28T22:34:15.622Z,1.68
2023-04-28T22:36:42.249Z,1.72
2023-04-28T22:39:08.954Z,1.84
2023-04-28T22:41:35.549Z,1.49
2023-04-28T22:44:02.212Z,1.54
2023-04-28T22:46:28.970Z,1.54
2023-04-28T22:48:56.267Z,1.42
2023-04-28T22:51:23.550Z,1.31
2023-04-28T22:53:50.200Z,1.20
2023-04-28T22:56:16.872Z,1.22
2023-04-28T22:58:43.525Z,1.12
2023-04-28T23:01:10.246Z,1.05
2023-04-28T23:03:37.013Z,1.07
2023-04-28T23:06:04.185Z,1.17
2023-04-28T23:08:30.849Z,1.03
2023-04-28T23:10:57.526Z,0.97
2023-04-28T23:13:24.191Z,1.05
2023-04-28T23:15:51.190Z,1.03
2023-04-28T23:18:17.829Z,1.08
2023-04-28T23:20:47.456Z,0.97
2023-04-28T23:23:14.239Z,0.92
2023-04-28T23:25:41.635Z,1.04
2023-04-28T23:28:08.496Z,1.51
2023-04-28T23:30:35.196Z,1.34
2023-04-28T23:33:02.117Z,1.26
2023-04-28T23:35:28.836Z,1.33
2023-04-28T23:37:55.701Z,1.34
2023-04-28T23:40:22.364Z,1.34
2023-04-28T23:42:48.960Z,1.29
2023-04-28T23:45:15.566Z,1.20
2023-04-28T23:47:42.238Z,1.28
2023-04-28T23:50:09.204Z,1.29
2023-04-28T23:52:35.929Z,1.28
2023-04-28T23:55:02.769Z,1.16
2023-04-28T23:57:29.433Z,1.60
2023-04-28T23:59:56.105Z,1.25
